sensor_id;sensor_type;location;lat;lon;timestamp;P1;durP1;ratioP1;P2;durP2;ratioP2
1715;SDS011;855;48.824;9.220;2022-08-19T00:00:49;25.17;;;14.50;;
1715;SDS011;855;48.824;9.220;2022-08-19T00:03:16;23.47;;;13.00;;
1715;SDS011;855;48.824;9.220;2022-08-19T00:05:45;21.90;;;13.13;;
1715;SDS011;855;48.824;9.220;2022-08-19T00:08:11;24.77;;;15.37;;
1715;SDS011;855;48.824;9.220;2022-08-19T00:10:38;28.63;;;16.13;;
1715;SDS011;855;48.824;9.220;2022-08-19T00:13:05;25.30;;;14.70;;
1715;SDS011;855;48.824;9.220;2022-08-19T00:15:32;23.20;;;13.57;;
1715;SDS011;855;48.824;9.220;2022-08-19T00:17:59;25.20;;;14.10;;
1715;SDS011;855;48.824;9.220;2022-08-19T00:20:26;21.17;;;13.17;;
1715;SDS011;855;48.824;9.220;2022-08-19T00:22:54;28.27;;;14.10;;
1715;SDS011;855;48.824;9.220;2022-08-19T00:25:21;26.30;;;14.50;;
1715;SDS011;855;48.824;9.220;2022-08-19T00:27:49;26.30;;;15.57;;
1715;SDS011;855;48.824;9.220;2022-08-19T00:30:16;22.90;;;12.83;;
1715;SDS011;855;48.824;9.220;2022-08-19T00:32:43;26.90;;;14.70;;
1715;SDS011;855;48.824;9.220;2022-08-19T00:35:10;30.40;;;15.43;;
1715;SDS011;855;48.824;9.220;2022-08-19T00:37:37;25.83;;;14.00;;
1715;SDS011;855;48.824;9.220;2022-08-19T00:40:10;27.30;;;13.07;;
1715;SDS011;855;48.824;9.220;2022-08-19T00:42:38;27.90;;;14.03;;
1715;SDS011;855;48.824;9.220;2022-08-19T00:45:09;24.20;;;14.03;;
1715;SDS011;855;48.824;9.220;2022-08-19T00:47:38;24.63;;;14.10;;
1715;SDS011;855;48.824;9.220;2022-08-19T00:50:05;23.93;;;13.57;;
1715;SDS011;855;48.824;9.220;2022-08-19T00:52:36;24.53;;;13.50;;
1715;SDS011;855;48.824;9.220;2022-08-19T00:55:08;24.10;;;14.13;;
1715;SDS011;855;48.824;9.220;2022-08-19T00:57:39;24.27;;;13.97;;
1715;SDS011;855;48.824;9.220;2022-08-19T01:00:12;27.70;;;14.80;;
1715;SDS011;855;48.824;9.220;2022-08-19T01:02:41;23.33;;;14.23;;
1715;SDS011;855;48.824;9.220;2022-08-19T01:05:10;27.90;;;14.90;;
1715;SDS011;855;48.824;9.220;2022-08-19T01:07:40;25.13;;;14.00;;
1715;SDS011;855;48.824;9.220;2022-08-19T01:10:10;28.83;;;15.60;;
1715;SDS011;855;48.824;9.220;2022-08-19T01:12:40;28.53;;;14.33;;
1715;SDS011;855;48.824;9.220;2022-08-19T01:15:09;26.57;;;13.47;;
1715;SDS011;855;48.824;9.220;2022-08-19T01:17:38;25.03;;;13.60;;
1715;SDS011;855;48.824;9.220;2022-08-19T01:20:08;29.00;;;14.67;;
1715;SDS011;855;48.824;9.220;2022-08-19T01:22:40;23.83;;;13.70;;
1715;SDS011;855;48.824;9.220;2022-08-19T01:25:10;27.03;;;14.73;;
1715;SDS011;855;48.824;9.220;2022-08-19T01:27:38;21.67;;;13.73;;
1715;SDS011;855;48.824;9.220;2022-08-19T01:30:07;24.77;;;15.20;;
1715;SDS011;855;48.824;9.220;2022-08-19T01:32:34;25.90;;;15.00;;
1715;SDS011;855;48.824;9.220;2022-08-19T01:35:02;29.40;;;15.50;;
1715;SDS011;855;48.824;9.220;2022-08-19T01:37:30;26.57;;;14.83;;
1715;SDS011;855;48.824;9.220;2022-08-19T01:40:10;24.07;;;13.90;;
1715;SDS011;855;48.824;9.220;2022-08-19T01:42:37;27.73;;;15.03;;
1715;SDS011;855;48.824;9.220;2022-08-19T01:45:04;26.03;;;14.80;;
1715;SDS011;855;48.824;9.220;2022-08-19T01:47:33;25.10;;;15.33;;
1715;SDS011;855;48.824;9.220;2022-08-19T01:50:01;27.00;;;16.20;;
1715;SDS011;855;48.824;9.220;2022-08-19T01:52:27;31.60;;;15.37;;
1715;SDS011;855;48.824;9.220;2022-08-19T01:54:56;32.43;;;17.80;;
1715;SDS011;855;48.824;9.220;2022-08-19T01:57:23;26.37;;;14.27;;
1715;SDS011;855;48.824;9.220;2022-08-19T01:59:51;28.67;;;15.43;;
1715;SDS011;855;48.824;9.220;2022-08-19T02:02:18;29.47;;;16.30;;
1715;SDS011;855;48.824;9.220;2022-08-19T02:04:44;26.90;;;15.40;;
1715;SDS011;855;48.824;9.220;2022-08-19T02:07:12;28.07;;;15.13;;
1715;SDS011;855;48.824;9.220;2022-08-19T02:09:39;28.70;;;16.03;;
1715;SDS011;855;48.824;9.220;2022-08-19T02:12:07;25.90;;;14.23;;
1715;SDS011;855;48.824;9.220;2022-08-19T02:14:34;33.70;;;16.40;;
1715;SDS011;855;48.824;9.220;2022-08-19T02:17:01;32.37;;;17.63;;
1715;SDS011;855;48.824;9.220;2022-08-19T02:19:28;27.60;;;16.10;;
1715;SDS011;855;48.824;9.220;2022-08-19T02:21:57;42.07;;;18.33;;
1715;SDS011;855;48.824;9.220;2022-08-19T02:24:24;30.43;;;15.90;;
1715;SDS011;855;48.824;9.220;2022-08-19T02:26:51;29.03;;;16.83;;
1715;SDS011;855;48.824;9.220;2022-08-19T02:29:20;29.60;;;16.53;;
1715;SDS011;855;48.824;9.220;2022-08-19T02:31:47;29.90;;;16.20;;
1715;SDS011;855;48.824;9.220;2022-08-19T02:34:14;32.37;;;17.40;;
1715;SDS011;855;48.824;9.220;2022-08-19T02:36:41;41.90;;;19.47;;
1715;SDS011;855;48.824;9.220;2022-08-19T02:39:08;34.27;;;18.33;;
1715;SDS011;855;48.824;9.220;2022-08-19T02:41:34;35.33;;;17.60;;
1715;SDS011;855;48.824;9.220;2022-08-19T02:44:01;34.37;;;18.93;;
1715;SDS011;855;48.824;9.220;2022-08-19T02:46:31;34.17;;;18.43;;
1715;SDS011;855;48.824;9.220;2022-08-19T02:49:00;41.30;;;20.17;;
1715;SDS011;855;48.824;9.220;2022-08-19T02:51:29;43.90;;;19.70;;
1715;SDS011;855;48.824;9.220;2022-08-19T02:53:57;45.57;;;20.97;;
1715;SDS011;855;48.824;9.220;2022-08-19T02:56:25;37.37;;;19.10;;
1715;SDS011;855;48.824;9.220;2022-08-19T02:58:53;40.57;;;19.73;;
1715;SDS011;855;48.824;9.220;2022-08-19T03:01:21;36.50;;;20.07;;
1715;SDS011;855;48.824;9.220;2022-08-19T03:03:50;37.43;;;21.10;;
1715;SDS011;855;48.824;9.220;2022-08-19T03:06:17;36.50;;;19.50;;
1715;SDS011;855;48.824;9.220;2022-08-19T03:08:45;38.90;;;20.07;;
1715;SDS011;855;48.824;9.220;2022-08-19T03:11:13;42.73;;;21.40;;
1715;SDS011;855;48.824;9.220;2022-08-19T03:13:41;40.40;;;21.07;;
1715;SDS011;855;48.824;9.220;2022-08-19T03:16:09;38.17;;;20.37;;
1715;SDS011;855;48.824;9.220;2022-08-19T03:18:37;41.67;;;22.60;;
1715;SDS011;855;48.824;9.220;2022-08-19T03:21:06;49.50;;;20.50;;
1715;SDS011;855;48.824;9.220;2022-08-19T03:23:33;40.43;;;21.67;;
1715;SDS011;855;48.824;9.220;2022-08-19T03:26:02;37.67;;;20.20;;
1715;SDS011;855;48.824;9.220;2022-08-19T03:28:30;41.00;;;22.20;;
1715;SDS011;855;48.824;9.220;2022-08-19T03:30:58;47.33;;;23.00;;
1715;SDS011;855;48.824;9.220;2022-08-19T03:33:28;43.73;;;22.23;;
1715;SDS011;855;48.824;9.220;2022-08-19T03:36:04;38.23;;;20.90;;
1715;SDS011;855;48.824;9.220;2022-08-19T03:38:35;40.80;;;22.40;;
1715;SDS011;855;48.824;9.220;2022-08-19T03:41:03;38.93;;;21.40;;
1715;SDS011;855;48.824;9.220;2022-08-19T03:43:33;40.23;;;23.23;;
1715;SDS011;855;48.824;9.220;2022-08-19T03:46:01;39.53;;;22.30;;
1715;SDS011;855;48.824;9.220;2022-08-19T03:48:29;43.70;;;22.77;;
1715;SDS011;855;48.824;9.220;2022-08-19T03:50:57;45.83;;;23.20;;
1715;SDS011;855;48.824;9.220;2022-08-19T03:53:26;44.10;;;23.47;;
1715;SDS011;855;48.824;9.220;2022-08-19T03:55:54;38.60;;;21.57;;
1715;SDS011;855;48.824;9.220;2022-08-19T03:58:21;43.00;;;22.50;;
1715;SDS011;855;48.824;9.220;2022-08-19T04:00:48;44.50;;;23.60;;
1715;SDS011;855;48.824;9.220;2022-08-19T04:03:15;42.13;;;23.17;;
1715;SDS011;855;48.824;9.220;2022-08-19T04:05:43;38.60;;;22.50;;
1715;SDS011;855;48.824;9.220;2022-08-19T04:08:11;47.57;;;23.70;;
1715;SDS011;855;48.824;9.220;2022-08-19T04:10:45;47.23;;;22.80;;
1715;SDS011;855;48.824;9.220;2022-08-19T04:13:12;44.50;;;23.07;;
1715;SDS011;855;48.824;9.220;2022-08-19T04:15:39;40.63;;;21.80;;
1715;SDS011;855;48.824;9.220;2022-08-19T04:18:07;44.50;;;24.17;;
1715;SDS011;855;48.824;9.220;2022-08-19T04:20:39;37.67;;;21.97;;
1715;SDS011;855;48.824;9.220;2022-08-19T04:23:09;41.60;;;23.10;;
1715;SDS011;855;48.824;9.220;2022-08-19T04:25:37;44.97;;;24.87;;
1715;SDS011;855;48.824;9.220;2022-08-19T04:28:07;44.80;;;24.17;;
1715;SDS011;855;48.824;9.220;2022-08-19T04:30:39;49.50;;;24.07;;
1715;SDS011;855;48.824;9.220;2022-08-19T04:33:08;44.77;;;25.47;;
1715;SDS011;855;48.824;9.220;2022-08-19T04:35:36;48.40;;;26.60;;
1715;SDS011;855;48.824;9.220;2022-08-19T04:38:05;47.53;;;25.20;;
1715;SDS011;855;48.824;9.220;2022-08-19T04:40:32;53.40;;;25.93;;
1715;SDS011;855;48.824;9.220;2022-08-19T04:43:18;46.67;;;25.37;;
1715;SDS011;855;48.824;9.220;2022-08-19T04:45:45;46.83;;;23.57;;
1715;SDS011;855;48.824;9.220;2022-08-19T04:48:12;49.53;;;24.67;;
1715;SDS011;855;48.824;9.220;2022-08-19T04:50:40;46.23;;;24.57;;
1715;SDS011;855;48.824;9.220;2022-08-19T04:53:08;46.50;;;22.90;;
1715;SDS011;855;48.824;9.220;2022-08-19T04:55:38;51.53;;;26.60;;
1715;SDS011;855;48.824;9.220;2022-08-19T04:58:06;48.00;;;25.80;;
1715;SDS011;855;48.824;9.220;2022-08-19T05:00:37;43.90;;;25.87;;
1715;SDS011;855;48.824;9.220;2022-08-19T05:03:04;44.00;;;23.23;;
1715;SDS011;855;48.824;9.220;2022-08-19T05:05:31;46.07;;;24.77;;
1715;SDS011;855;48.824;9.220;2022-08-19T05:07:59;53.60;;;28.23;;
1715;SDS011;855;48.824;9.220;2022-08-19T05:10:26;51.63;;;25.23;;
1715;SDS011;855;48.824;9.220;2022-08-19T05:12:53;53.87;;;25.10;;
1715;SDS011;855;48.824;9.220;2022-08-19T05:15:19;52.03;;;26.00;;
1715;SDS011;855;48.824;9.220;2022-08-19T05:17:48;50.10;;;25.87;;
1715;SDS011;855;48.824;9.220;2022-08-19T05:20:28;44.43;;;23.10;;
1715;SDS011;855;48.824;9.220;2022-08-19T05:23:12;47.37;;;25.70;;
1715;SDS011;855;48.824;9.220;2022-08-19T05:25:40;47.93;;;26.37;;
1715;SDS011;855;48.824;9.220;2022-08-19T05:28:08;42.20;;;24.90;;
1715;SDS011;855;48.824;9.220;2022-08-19T05:30:35;47.33;;;25.30;;
1715;SDS011;855;48.824;9.220;2022-08-19T05:33:03;47.80;;;25.87;;
1715;SDS011;855;48.824;9.220;2022-08-19T05:35:30;47.17;;;25.07;;
1715;SDS011;855;48.824;9.220;2022-08-19T05:37:57;43.13;;;22.60;;
1715;SDS011;855;48.824;9.220;2022-08-19T05:40:23;43.90;;;23.23;;
1715;SDS011;855;48.824;9.220;2022-08-19T05:42:50;37.70;;;21.77;;
1715;SDS011;855;48.824;9.220;2022-08-19T05:45:18;49.30;;;24.90;;
1715;SDS011;855;48.824;9.220;2022-08-19T05:47:46;44.40;;;24.87;;
1715;SDS011;855;48.824;9.220;2022-08-19T05:50:15;47.07;;;24.67;;
1715;SDS011;855;48.824;9.220;2022-08-19T05:52:42;45.70;;;24.97;;
1715;SDS011;855;48.824;9.220;2022-08-19T05:55:10;43.40;;;23.80;;
1715;SDS011;855;48.824;9.220;2022-08-19T05:57:37;56.10;;;25.63;;
1715;SDS011;855;48.824;9.220;2022-08-19T06:00:05;44.33;;;24.30;;
1715;SDS011;855;48.824;9.220;2022-08-19T06:02:35;44.80;;;24.50;;
1715;SDS011;855;48.824;9.220;2022-08-19T06:05:02;46.60;;;25.00;;
1715;SDS011;855;48.824;9.220;2022-08-19T06:07:35;51.37;;;23.50;;
1715;SDS011;855;48.824;9.220;2022-08-19T06:10:03;45.67;;;25.03;;
1715;SDS011;855;48.824;9.220;2022-08-19T06:12:31;47.00;;;26.07;;
1715;SDS011;855;48.824;9.220;2022-08-19T06:14:59;44.30;;;24.80;;
1715;SDS011;855;48.824;9.220;2022-08-19T06:17:27;58.80;;;27.10;;
1715;SDS011;855;48.824;9.220;2022-08-19T06:19:55;47.10;;;25.53;;
1715;SDS011;855;48.824;9.220;2022-08-19T06:22:21;46.13;;;24.63;;
1715;SDS011;855;48.824;9.220;2022-08-19T06:24:50;46.37;;;25.90;;
1715;SDS011;855;48.824;9.220;2022-08-19T06:27:17;47.70;;;25.93;;
1715;SDS011;855;48.824;9.220;2022-08-19T06:29:44;48.30;;;23.87;;
1715;SDS011;855;48.824;9.220;2022-08-19T06:32:11;54.63;;;26.60;;
1715;SDS011;855;48.824;9.220;2022-08-19T06:34:41;42.73;;;23.50;;
1715;SDS011;855;48.824;9.220;2022-08-19T06:37:10;46.70;;;25.87;;
1715;SDS011;855;48.824;9.220;2022-08-19T06:39:39;49.90;;;26.30;;
1715;SDS011;855;48.824;9.220;2022-08-19T06:42:09;45.07;;;24.90;;
1715;SDS011;855;48.824;9.220;2022-08-19T06:44:41;48.63;;;25.10;;
1715;SDS011;855;48.824;9.220;2022-08-19T06:47:10;49.73;;;24.30;;
1715;SDS011;855;48.824;9.220;2022-08-19T06:49:40;49.33;;;26.33;;
1715;SDS011;855;48.824;9.220;2022-08-19T06:52:08;45.83;;;23.90;;
1715;SDS011;855;48.824;9.220;2022-08-19T06:54:37;41.90;;;24.60;;
1715;SDS011;855;48.824;9.220;2022-08-19T06:57:04;49.83;;;25.60;;
1715;SDS011;855;48.824;9.220;2022-08-19T06:59:35;50.77;;;27.03;;
1715;SDS011;855;48.824;9.220;2022-08-19T07:02:03;50.63;;;24.73;;
1715;SDS011;855;48.824;9.220;2022-08-19T07:04:32;44.40;;;25.37;;
1715;SDS011;855;48.824;9.220;2022-08-19T07:07:02;51.73;;;25.07;;
1715;SDS011;855;48.824;9.220;2022-08-19T07:09:33;50.33;;;25.80;;
1715;SDS011;855;48.824;9.220;2022-08-19T07:12:02;57.50;;;28.30;;
1715;SDS011;855;48.824;9.220;2022-08-19T07:14:31;42.90;;;23.70;;
1715;SDS011;855;48.824;9.220;2022-08-19T07:17:02;55.27;;;23.27;;
1715;SDS011;855;48.824;9.220;2022-08-19T07:19:30;52.13;;;25.43;;
1715;SDS011;855;48.824;9.220;2022-08-19T07:21:57;40.10;;;23.10;;
1715;SDS011;855;48.824;9.220;2022-08-19T07:24:27;47.07;;;23.43;;
1715;SDS011;855;48.824;9.220;2022-08-19T07:26:55;52.17;;;24.83;;
1715;SDS011;855;48.824;9.220;2022-08-19T07:29:26;48.30;;;24.33;;
1715;SDS011;855;48.824;9.220;2022-08-19T07:31:54;42.83;;;22.97;;
1715;SDS011;855;48.824;9.220;2022-08-19T07:34:25;43.30;;;23.90;;
1715;SDS011;855;48.824;9.220;2022-08-19T07:36:53;45.17;;;23.23;;
1715;SDS011;855;48.824;9.220;2022-08-19T07:39:22;52.80;;;23.67;;
1715;SDS011;855;48.824;9.220;2022-08-19T07:41:50;46.40;;;22.20;;
1715;SDS011;855;48.824;9.220;2022-08-19T07:44:19;43.47;;;22.50;;
1715;SDS011;855;48.824;9.220;2022-08-19T07:46:50;46.60;;;23.07;;
1715;SDS011;855;48.824;9.220;2022-08-19T07:49:20;39.03;;;21.27;;
1715;SDS011;855;48.824;9.220;2022-08-19T07:51:50;47.93;;;22.60;;
1715;SDS011;855;48.824;9.220;2022-08-19T07:54:19;40.57;;;21.80;;
1715;SDS011;855;48.824;9.220;2022-08-19T07:56:47;40.83;;;21.77;;
1715;SDS011;855;48.824;9.220;2022-08-19T07:59:15;42.20;;;23.23;;
1715;SDS011;855;48.824;9.220;2022-08-19T08:01:43;38.87;;;22.73;;
1715;SDS011;855;48.824;9.220;2022-08-19T08:04:11;39.63;;;21.87;;
1715;SDS011;855;48.824;9.220;2022-08-19T08:06:57;39.17;;;22.80;;
1715;SDS011;855;48.824;9.220;2022-08-19T08:09:42;42.50;;;22.83;;
1715;SDS011;855;48.824;9.220;2022-08-19T08:12:11;43.07;;;23.57;;
1715;SDS011;855;48.824;9.220;2022-08-19T08:14:41;45.77;;;24.60;;
1715;SDS011;855;48.824;9.220;2022-08-19T08:17:10;39.50;;;21.67;;
1715;SDS011;855;48.824;9.220;2022-08-19T08:19:38;41.17;;;22.90;;
1715;SDS011;855;48.824;9.220;2022-08-19T08:22:08;50.53;;;24.10;;
1715;SDS011;855;48.824;9.220;2022-08-19T08:25:00;37.97;;;22.10;;
1715;SDS011;855;48.824;9.220;2022-08-19T08:27:28;41.30;;;21.80;;
1715;SDS011;855;48.824;9.220;2022-08-19T08:29:56;40.90;;;22.47;;
1715;SDS011;855;48.824;9.220;2022-08-19T08:32:23;38.50;;;21.13;;
1715;SDS011;855;48.824;9.220;2022-08-19T08:34:49;45.63;;;22.27;;
1715;SDS011;855;48.824;9.220;2022-08-19T08:37:20;41.63;;;20.67;;
1715;SDS011;855;48.824;9.220;2022-08-19T08:39:47;39.20;;;21.77;;
1715;SDS011;855;48.824;9.220;2022-08-19T08:42:16;38.50;;;22.00;;
1715;SDS011;855;48.824;9.220;2022-08-19T08:44:48;38.60;;;20.63;;
1715;SDS011;855;48.824;9.220;2022-08-19T08:47:20;38.10;;;21.40;;
1715;SDS011;855;48.824;9.220;2022-08-19T08:49:50;40.30;;;22.60;;
1715;SDS011;855;48.824;9.220;2022-08-19T08:52:23;37.23;;;20.40;;
1715;SDS011;855;48.824;9.220;2022-08-19T08:54:53;37.80;;;21.20;;
1715;SDS011;855;48.824;9.220;2022-08-19T08:57:26;38.43;;;20.40;;
1715;SDS011;855;48.824;9.220;2022-08-19T08:59:56;39.13;;;20.43;;
1715;SDS011;855;48.824;9.220;2022-08-19T09:02:24;41.67;;;20.40;;
1715;SDS011;855;48.824;9.220;2022-08-19T09:04:53;35.53;;;19.50;;
1715;SDS011;855;48.824;9.220;2022-08-19T09:07:28;38.00;;;21.70;;
1715;SDS011;855;48.824;9.220;2022-08-19T09:10:07;36.50;;;19.93;;
1715;SDS011;855;48.824;9.220;2022-08-19T09:12:45;33.73;;;19.10;;
1715;SDS011;855;48.824;9.220;2022-08-19T09:15:20;36.07;;;20.10;;
1715;SDS011;855;48.824;9.220;2022-08-19T09:17:52;39.70;;;20.57;;
1715;SDS011;855;48.824;9.220;2022-08-19T09:20:20;38.27;;;21.57;;
1715;SDS011;855;48.824;9.220;2022-08-19T09:22:49;33.37;;;19.27;;
1715;SDS011;855;48.824;9.220;2022-08-19T09:25:18;38.10;;;21.27;;
1715;SDS011;855;48.824;9.220;2022-08-19T09:27:47;36.27;;;19.60;;
1715;SDS011;855;48.824;9.220;2022-08-19T09:30:15;38.10;;;18.37;;
1715;SDS011;855;48.824;9.220;2022-08-19T09:32:46;34.67;;;18.83;;
1715;SDS011;855;48.824;9.220;2022-08-19T09:35:14;34.13;;;17.53;;
1715;SDS011;855;48.824;9.220;2022-08-19T09:37:41;29.40;;;18.10;;
1715;SDS011;855;48.824;9.220;2022-08-19T09:40:11;29.90;;;17.67;;
1715;SDS011;855;48.824;9.220;2022-08-19T09:42:38;37.30;;;17.87;;
1715;SDS011;855;48.824;9.220;2022-08-19T09:45:08;32.00;;;18.70;;
1715;SDS011;855;48.824;9.220;2022-08-19T09:47:36;32.00;;;18.13;;
1715;SDS011;855;48.824;9.220;2022-08-19T09:50:03;32.10;;;17.17;;
1715;SDS011;855;48.824;9.220;2022-08-19T09:52:32;31.27;;;18.00;;
1715;SDS011;855;48.824;9.220;2022-08-19T09:55:01;28.03;;;16.93;;
1715;SDS011;855;48.824;9.220;2022-08-19T09:57:30;66.93;;;16.60;;
1715;SDS011;855;48.824;9.220;2022-08-19T09:59:57;27.30;;;16.33;;
1715;SDS011;855;48.824;9.220;2022-08-19T10:02:24;29.67;;;15.03;;
1715;SDS011;855;48.824;9.220;2022-08-19T10:04:51;28.60;;;16.30;;
1715;SDS011;855;48.824;9.220;2022-08-19T10:07:35;27.77;;;14.73;;
1715;SDS011;855;48.824;9.220;2022-08-19T10:10:02;31.60;;;15.53;;
1715;SDS011;855;48.824;9.220;2022-08-19T10:12:32;29.47;;;17.63;;
1715;SDS011;855;48.824;9.220;2022-08-19T10:14:59;25.50;;;14.13;;
1715;SDS011;855;48.824;9.220;2022-08-19T10:17:26;26.97;;;15.30;;
1715;SDS011;855;48.824;9.220;2022-08-19T10:19:57;25.07;;;14.30;;
1715;SDS011;855;48.824;9.220;2022-08-19T10:22:24;24.77;;;13.57;;
1715;SDS011;855;48.824;9.220;2022-08-19T10:24:51;22.80;;;13.80;;
1715;SDS011;855;48.824;9.220;2022-08-19T10:27:18;24.00;;;14.87;;
1715;SDS011;855;48.824;9.220;2022-08-19T10:29:47;26.07;;;15.20;;
1715;SDS011;855;48.824;9.220;2022-08-19T10:32:13;29.53;;;15.93;;
1715;SDS011;855;48.824;9.220;2022-08-19T10:34:41;22.80;;;13.63;;
1715;SDS011;855;48.824;9.220;2022-08-19T10:37:08;22.33;;;14.23;;
1715;SDS011;855;48.824;9.220;2022-08-19T10:39:35;29.60;;;13.70;;
1715;SDS011;855;48.824;9.220;2022-08-19T10:42:04;21.30;;;13.17;;
1715;SDS011;855;48.824;9.220;2022-08-19T10:44:31;28.80;;;13.70;;
1715;SDS011;855;48.824;9.220;2022-08-19T10:47:01;19.80;;;12.57;;
1715;SDS011;855;48.824;9.220;2022-08-19T10:49:29;23.33;;;12.53;;
1715;SDS011;855;48.824;9.220;2022-08-19T10:51:57;30.07;;;13.63;;
1715;SDS011;855;48.824;9.220;2022-08-19T10:54:41;31.47;;;13.07;;
1715;SDS011;855;48.824;9.220;2022-08-19T10:57:25;26.87;;;13.90;;
1715;SDS011;855;48.824;9.220;2022-08-19T10:59:56;20.60;;;12.50;;
1715;SDS011;855;48.824;9.220;2022-08-19T11:02:24;17.70;;;11.60;;
1715;SDS011;855;48.824;9.220;2022-08-19T11:04:51;21.23;;;11.80;;
1715;SDS011;855;48.824;9.220;2022-08-19T11:07:18;16.03;;;9.57;;
1715;SDS011;855;48.824;9.220;2022-08-19T11:09:46;17.00;;;10.50;;
1715;SDS011;855;48.824;9.220;2022-08-19T11:12:13;18.17;;;10.93;;
1715;SDS011;855;48.824;9.220;2022-08-19T11:14:40;15.83;;;9.30;;
1715;SDS011;855;48.824;9.220;2022-08-19T11:17:07;14.30;;;9.90;;
1715;SDS011;855;48.824;9.220;2022-08-19T11:19:37;14.03;;;9.30;;
1715;SDS011;855;48.824;9.220;2022-08-19T11:22:04;17.43;;;9.00;;
1715;SDS011;855;48.824;9.220;2022-08-19T11:24:34;14.47;;;8.37;;
1715;SDS011;855;48.824;9.220;2022-08-19T11:27:02;14.30;;;8.73;;
1715;SDS011;855;48.824;9.220;2022-08-19T11:29:32;16.47;;;9.20;;
1715;SDS011;855;48.824;9.220;2022-08-19T11:32:00;20.70;;;10.20;;
1715;SDS011;855;48.824;9.220;2022-08-19T11:34:30;16.00;;;9.20;;
1715;SDS011;855;48.824;9.220;2022-08-19T11:36:58;14.03;;;8.80;;
1715;SDS011;855;48.824;9.220;2022-08-19T11:39:26;14.83;;;9.47;;
1715;SDS011;855;48.824;9.220;2022-08-19T11:41:55;15.67;;;8.80;;
1715;SDS011;855;48.824;9.220;2022-08-19T11:44:23;13.60;;;8.53;;
1715;SDS011;855;48.824;9.220;2022-08-19T11:46:50;16.80;;;9.50;;
1715;SDS011;855;48.824;9.220;2022-08-19T11:49:18;14.33;;;8.10;;
1715;SDS011;855;48.824;9.220;2022-08-19T11:51:46;12.03;;;8.60;;
1715;SDS011;855;48.824;9.220;2022-08-19T11:54:16;18.50;;;9.90;;
1715;SDS011;855;48.824;9.220;2022-08-19T11:56:43;15.47;;;9.67;;
1715;SDS011;855;48.824;9.220;2022-08-19T11:59:12;12.90;;;8.67;;
1715;SDS011;855;48.824;9.220;2022-08-19T12:01:39;13.60;;;8.20;;
1715;SDS011;855;48.824;9.220;2022-08-19T12:04:07;16.07;;;9.97;;
1715;SDS011;855;48.824;9.220;2022-08-19T12:06:37;14.60;;;9.47;;
1715;SDS011;855;48.824;9.220;2022-08-19T12:09:06;13.10;;;8.53;;
1715;SDS011;855;48.824;9.220;2022-08-19T12:11:36;17.20;;;9.37;;
1715;SDS011;855;48.824;9.220;2022-08-19T12:14:04;15.13;;;8.43;;
1715;SDS011;855;48.824;9.220;2022-08-19T12:16:31;13.40;;;8.80;;
1715;SDS011;855;48.824;9.220;2022-08-19T12:18:58;19.13;;;9.40;;
1715;SDS011;855;48.824;9.220;2022-08-19T12:21:29;19.13;;;9.80;;
1715;SDS011;855;48.824;9.220;2022-08-19T12:23:58;14.20;;;8.37;;
1715;SDS011;855;48.824;9.220;2022-08-19T12:26:27;13.50;;;8.27;;
1715;SDS011;855;48.824;9.220;2022-08-19T12:28:57;13.97;;;8.47;;
1715;SDS011;855;48.824;9.220;2022-08-19T12:31:25;17.40;;;8.20;;
1715;SDS011;855;48.824;9.220;2022-08-19T12:33:53;14.80;;;7.70;;
1715;SDS011;855;48.824;9.220;2022-08-19T12:36:20;25.97;;;13.43;;
1715;SDS011;855;48.824;9.220;2022-08-19T12:38:48;30.27;;;16.73;;
1715;SDS011;855;48.824;9.220;2022-08-19T12:41:15;27.20;;;15.27;;
1715;SDS011;855;48.824;9.220;2022-08-19T12:43:43;28.80;;;16.20;;
1715;SDS011;855;48.824;9.220;2022-08-19T12:46:12;29.37;;;16.03;;
1715;SDS011;855;48.824;9.220;2022-08-19T12:48:39;31.70;;;19.23;;
1715;SDS011;855;48.824;9.220;2022-08-19T12:51:11;36.00;;;18.30;;
1715;SDS011;855;48.824;9.220;2022-08-19T12:53:40;37.17;;;20.23;;
1715;SDS011;855;48.824;9.220;2022-08-19T12:56:07;37.07;;;20.60;;
1715;SDS011;855;48.824;9.220;2022-08-19T12:58:36;41.50;;;21.20;;
1715;SDS011;855;48.824;9.220;2022-08-19T13:01:07;37.57;;;20.00;;
1715;SDS011;855;48.824;9.220;2022-08-19T13:03:37;31.80;;;18.07;;
1715;SDS011;855;48.824;9.220;2022-08-19T13:06:05;33.30;;;20.23;;
1715;SDS011;855;48.824;9.220;2022-08-19T13:08:33;44.43;;;21.67;;
1715;SDS011;855;48.824;9.220;2022-08-19T13:11:06;42.73;;;20.03;;
1715;SDS011;855;48.824;9.220;2022-08-19T13:13:36;38.93;;;21.80;;
1715;SDS011;855;48.824;9.220;2022-08-19T13:16:05;36.30;;;19.60;;
1715;SDS011;855;48.824;9.220;2022-08-19T13:18:33;35.53;;;20.10;;
1715;SDS011;855;48.824;9.220;2022-08-19T13:21:03;48.30;;;20.70;;
1715;SDS011;855;48.824;9.220;2022-08-19T13:23:30;45.30;;;22.90;;
1715;SDS011;855;48.824;9.220;2022-08-19T13:25:57;45.50;;;22.97;;
1715;SDS011;855;48.824;9.220;2022-08-19T13:28:25;47.57;;;22.80;;
1715;SDS011;855;48.824;9.220;2022-08-19T13:31:14;48.10;;;23.13;;
1715;SDS011;855;48.824;9.220;2022-08-19T13:33:59;43.60;;;23.47;;
1715;SDS011;855;48.824;9.220;2022-08-19T13:36:27;42.57;;;20.70;;
1715;SDS011;855;48.824;9.220;2022-08-19T13:38:54;37.27;;;23.03;;
1715;SDS011;855;48.824;9.220;2022-08-19T13:41:21;41.03;;;22.63;;
1715;SDS011;855;48.824;9.220;2022-08-19T13:43:48;40.83;;;22.30;;
1715;SDS011;855;48.824;9.220;2022-08-19T13:46:15;40.13;;;22.23;;
1715;SDS011;855;48.824;9.220;2022-08-19T13:48:42;39.03;;;21.27;;
1715;SDS011;855;48.824;9.220;2022-08-19T13:51:09;47.10;;;22.07;;
1715;SDS011;855;48.824;9.220;2022-08-19T13:53:37;51.00;;;25.70;;
1715;SDS011;855;48.824;9.220;2022-08-19T13:56:07;47.70;;;23.57;;
1715;SDS011;855;48.824;9.220;2022-08-19T13:58:35;46.77;;;24.00;;
1715;SDS011;855;48.824;9.220;2022-08-19T14:01:03;48.97;;;24.27;;
1715;SDS011;855;48.824;9.220;2022-08-19T14:03:31;53.23;;;26.63;;
1715;SDS011;855;48.824;9.220;2022-08-19T14:05:58;50.23;;;25.37;;
1715;SDS011;855;48.824;9.220;2022-08-19T14:08:26;51.93;;;26.97;;
1715;SDS011;855;48.824;9.220;2022-08-19T14:10:55;52.33;;;27.03;;
1715;SDS011;855;48.824;9.220;2022-08-19T14:13:22;56.93;;;26.93;;
1715;SDS011;855;48.824;9.220;2022-08-19T14:15:50;53.60;;;26.80;;
1715;SDS011;855;48.824;9.220;2022-08-19T14:18:18;56.17;;;29.70;;
1715;SDS011;855;48.824;9.220;2022-08-19T14:20:45;54.70;;;29.33;;
1715;SDS011;855;48.824;9.220;2022-08-19T14:23:12;56.70;;;28.87;;
1715;SDS011;855;48.824;9.220;2022-08-19T14:25:39;60.60;;;29.60;;
1715;SDS011;855;48.824;9.220;2022-08-19T14:28:08;57.10;;;30.07;;
1715;SDS011;855;48.824;9.220;2022-08-19T14:30:35;57.07;;;29.67;;
1715;SDS011;855;48.824;9.220;2022-08-19T14:33:03;73.97;;;32.47;;
1715;SDS011;855;48.824;9.220;2022-08-19T14:35:32;62.77;;;30.73;;
1715;SDS011;855;48.824;9.220;2022-08-19T14:38:00;50.67;;;27.50;;
1715;SDS011;855;48.824;9.220;2022-08-19T14:40:29;61.07;;;29.97;;
1715;SDS011;855;48.824;9.220;2022-08-19T14:42:57;52.43;;;28.40;;
1715;SDS011;855;48.824;9.220;2022-08-19T14:45:31;53.40;;;28.27;;
1715;SDS011;855;48.824;9.220;2022-08-19T14:48:00;56.20;;;27.50;;
1715;SDS011;855;48.824;9.220;2022-08-19T14:50:27;56.40;;;28.67;;
1715;SDS011;855;48.824;9.220;2022-08-19T14:52:58;56.20;;;29.70;;
1715;SDS011;855;48.824;9.220;2022-08-19T14:55:26;49.90;;;29.10;;
1715;SDS011;855;48.824;9.220;2022-08-19T14:57:53;57.67;;;29.13;;
1715;SDS011;855;48.824;9.220;2022-08-19T15:00:20;55.47;;;27.83;;
1715;SDS011;855;48.824;9.220;2022-08-19T15:02:50;57.43;;;29.27;;
1715;SDS011;855;48.824;9.220;2022-08-19T15:05:18;54.30;;;27.93;;
1715;SDS011;855;48.824;9.220;2022-08-19T15:07:45;52.07;;;28.40;;
1715;SDS011;855;48.824;9.220;2022-08-19T15:10:14;57.30;;;27.93;;
1715;SDS011;855;48.824;9.220;2022-08-19T15:12:41;51.30;;;27.50;;